createdAt,value
2022-09-30T00:00:56.984Z,99412.03
2022-09-30T00:03:24.353Z,99416.38
2022-09-30T00:06:07.628Z,99420.69
2022-09-30T00:08:36.861Z,99429.69
2022-09-30T00:11:13.698Z,99424.78
2022-09-30T00:13:40.947Z,99414.50
2022-09-30T00:16:09.787Z,99423.56
2022-09-30T00:18:37.045Z,99420.28
2022-09-30T00:21:04.322Z,99416.97
2022-09-30T00:23:31.708Z,99419.84
2022-09-30T00:26:03.790Z,99422.94
2022-09-30T00:28:31.152Z,99425.59
2022-09-30T00:31:03.032Z,99424.16
2022-09-30T00:33:29.785Z,99430.13
2022-09-30T00:35:56.715Z,99419.63
2022-09-30T00:38:23.443Z,99422.50
2022-09-30T00:40:51.649Z,99424.97
2022-09-30T00:43:38.767Z,99430.72
2022-09-30T00:46:06.346Z,99428.69
2022-09-30T00:48:39.130Z,99436.69
2022-09-30T00:51:07.243Z,99425.59
2022-09-30T00:53:43.971Z,99434.59
2022-09-30T00:56:19.317Z,99439.13
2022-09-30T00:59:01.904Z,99435.84
2022-09-30T01:01:40.269Z,99438.94
2022-09-30T01:04:17.786Z,99457.19
2022-09-30T01:06:52.803Z,99452.69
2022-09-30T01:09:26.543Z,99442.81
2022-09-30T01:11:55.432Z,99434.22
2022-09-30T01:14:29.848Z,99424.59
2022-09-30T01:17:23.289Z,99426.41
2022-09-30T01:19:58.214Z,99430.50
2022-09-30T01:22:41.911Z,99415.94
2022-09-30T01:25:47.949Z,99404.28
2022-09-30T01:29:11.115Z,99412.06
2022-09-30T01:32:17.336Z,99414.09
2022-09-30T01:34:55.891Z,99415.53
2022-09-30T01:37:53.595Z,99410.84
2022-09-30T01:40:51.413Z,99420.66
2022-09-30T01:43:39.971Z,99411.66
2022-09-30T01:46:28.092Z,99413.72
2022-09-30T01:49:03.222Z,99420.50
2022-09-30T01:51:47.850Z,99410.00
2022-09-30T01:54:33.301Z,99411.06
2022-09-30T01:57:18.997Z,99406.13
2022-09-30T01:59:56.193Z,99411.03
2022-09-30T02:02:28.855Z,99401.63
2022-09-30T02:05:06.019Z,99405.50
2022-09-30T02:07:38.954Z,99401.22
2022-09-30T02:10:15.074Z,99401.22
2022-09-30T02:12:50.917Z,99400.59
2022-09-30T02:15:39.675Z,99399.34
2022-09-30T02:18:21.166Z,99390.94
2022-09-30T02:20:57.121Z,99385.00
2022-09-30T02:23:30.306Z,99380.88
2022-09-30T02:26:24.313Z,99392.78
2022-09-30T02:28:59.633Z,99397.31
2022-09-30T02:31:29.267Z,99405.50
2022-09-30T02:34:24.962Z,99396.47
2022-09-30T02:37:01.140Z,99398.31
2022-09-30T02:39:40.988Z,99399.56
2022-09-30T02:42:19.175Z,99395.25
2022-09-30T02:44:49.051Z,99405.31
2022-09-30T02:47:26.911Z,99393.00
2022-09-30T02:50:07.110Z,99411.66
2022-09-30T02:53:01.757Z,99412.47
2022-09-30T02:55:52.610Z,99405.50
2022-09-30T02:58:22.532Z,99403.03
2022-09-30T03:00:50.333Z,99419.69
2022-09-30T03:03:25.352Z,99422.75
2022-09-30T03:05:52.514Z,99414.75
2022-09-30T03:08:19.504Z,99422.75
2022-09-30T03:10:50.951Z,99418.66
2022-09-30T03:13:32.893Z,99418.84
2022-09-30T03:16:05.620Z,99417.63
2022-09-30T03:18:57.499Z,99407.16
2022-09-30T03:21:39.209Z,99405.91
2022-09-30T03:24:29.232Z,99399.75
2022-09-30T03:27:14.798Z,99403.44
2022-09-30T03:29:56.475Z,99407.34
2022-09-30T03:32:48.811Z,99414.53
2022-09-30T03:35:27.802Z,99411.66
2022-09-30T03:38:18.446Z,99412.50
2022-09-30T03:41:08.456Z,99409.81
2022-09-30T03:43:41.190Z,99410.22
2022-09-30T03:46:18.910Z,99418.22
2022-09-30T03:48:48.342Z,99416.78
2022-09-30T03:51:15.285Z,99414.91
2022-09-30T03:53:44.234Z,99415.94
2022-09-30T03:56:10.867Z,99412.03
2022-09-30T03:58:42.692Z,99410.59
2022-09-30T04:01:19.290Z,99408.13
2022-09-30T04:03:46.787Z,99417.38
2022-09-30T04:06:14.849Z,99418.78
2022-09-30T04:08:41.600Z,99413.66
2022-09-30T04:11:08.317Z,99421.88
2022-09-30T04:13:35.014Z,99420.03
2022-09-30T04:16:02.192Z,99417.16
2022-09-30T04:18:30.551Z,99419.22
2022-09-30T04:21:00.721Z,99432.13
2022-09-30T04:23:27.462Z,99433.97
2022-09-30T04:25:55.306Z,99444.03
2022-09-30T04:28:23.182Z,99443.41
2022-09-30T04:30:49.963Z,99443.25
2022-09-30T04:33:16.837Z,99441.16
2022-09-30T04:35:43.504Z,99447.94
2022-09-30T04:38:10.121Z,99454.94
2022-09-30T04:40:38.477Z,99461.94
2022-09-30T04:43:06.324Z,99465.84
2022-09-30T04:45:33.195Z,99466.25
2022-09-30T04:47:59.956Z,99475.22
2022-09-30T04:50:26.893Z,99477.50
2022-09-30T04:52:55.930Z,99480.38
2022-09-30T04:55:23.519Z,99480.81
2022-09-30T04:57:50.531Z,99481.00
2022-09-30T05:00:17.369Z,99495.38
2022-09-30T05:02:44.979Z,99492.72
2022-09-30T05:05:11.871Z,99492.06
2022-09-30T05:07:38.521Z,99486.34
2022-09-30T05:10:05.829Z,99494.53
2022-09-30T05:12:32.516Z,99488.19
2022-09-30T05:14:59.178Z,99493.72
2022-09-30T05:17:26.061Z,99496.81
2022-09-30T05:19:52.659Z,99506.06
2022-09-30T05:22:19.295Z,99512.22
2022-09-30T05:24:45.930Z,99516.72
2022-09-30T05:27:12.640Z,99525.13
2022-09-30T05:29:39.842Z,99526.19
2022-09-30T05:32:07.839Z,99535.81
2022-09-30T05:34:34.455Z,99534.00
2022-09-30T05:37:01.464Z,99541.63
2022-09-30T05:39:29.164Z,99536.06
2022-09-30T05:41:59.662Z,99543.88
2022-09-30T05:44:26.420Z,99541.22
2022-09-30T05:46:53.621Z,99541.63
2022-09-30T05:49:20.375Z,99543.91
2022-09-30T05:51:47.781Z,99549.44
2022-09-30T05:54:14.449Z,99554.16
2022-09-30T05:56:41.212Z,99562.75
2022-09-30T05:59:07.961Z,99559.69
2022-09-30T06:01:34.725Z,99569.94
2022-09-30T06:04:01.699Z,99582.09
2022-09-30T06:06:28.802Z,99583.50
2022-09-30T06:08:55.604Z,99585.56
2022-09-30T06:11:25.153Z,99604.25
2022-09-30T06:13:52.392Z,99614.06
2022-09-30T06:16:19.383Z,99616.34
2022-09-30T06:18:46.120Z,99625.97
2022-09-30T06:21:14.498Z,99626.38
2022-09-30T06:23:41.638Z,99638.69
2022-09-30T06:26:11.659Z,99640.34
2022-09-30T06:28:38.667Z,99643.84
2022-09-30T06:31:06.737Z,99650.19
2022-09-30T06:33:33.468Z,99650.84
2022-09-30T06:36:04.320Z,99655.56
2022-09-30T06:38:32.311Z,99664.22
2022-09-30T06:41:02.146Z,99672.63
2022-09-30T06:43:28.871Z,99675.53
2022-09-30T06:46:06.687Z,99673.31
2022-09-30T06:48:39.054Z,99668.19
2022-09-30T06:51:09.931Z,99675.97
2022-09-30T06:53:38.113Z,99686.09
2022-09-30T06:56:05.106Z,99681.66
2022-09-30T06:58:31.962Z,99681.44
2022-09-30T07:01:04.413Z,99685.97
2022-09-30T07:03:33.689Z,99688.25
2022-09-30T07:06:02.750Z,99700.63
2022-09-30T07:08:31.741Z,99715.00
2022-09-30T07:11:04.607Z,99733.44
2022-09-30T07:13:33.091Z,99732.19
2022-09-30T07:15:59.920Z,99728.66
2022-09-30T07:18:27.350Z,99737.06
2022-09-30T07:20:55.622Z,99725.78
2022-09-30T07:23:26.878Z,99728.84
2022-09-30T07:25:57.192Z,99738.69
2022-09-30T07:28:27.995Z,99729.84
2022-09-30T07:31:19.901Z,99726.75
2022-09-30T07:33:46.309Z,99734.34
2022-09-30T07:36:18.642Z,99751.38
2022-09-30T07:38:49.908Z,99764.94
2022-09-30T07:41:21.920Z,99771.44
2022-09-30T07:43:49.078Z,99768.97
2022-09-30T07:46:24.597Z,99780.00
2022-09-30T07:48:54.968Z,99791.69
2022-09-30T07:51:25.230Z,99803.81
2022-09-30T07:53:55.896Z,99813.44
2022-09-30T07:56:23.992Z,99821.63
2022-09-30T07:58:57.622Z,99813.63
2022-09-30T08:01:24.997Z,99826.38
2022-09-30T08:03:57.173Z,99824.53
2022-09-30T08:06:24.600Z,99830.78
2022-09-30T08:08:53.546Z,99832.84
2022-09-30T08:11:20.900Z,99838.19
2022-09-30T08:13:55.862Z,99836.31
2022-09-30T08:16:24.713Z,99844.88
2022-09-30T08:19:00.527Z,99841.97
2022-09-30T08:21:28.846Z,99843.19
2022-09-30T08:23:57.014Z,99841.53
2022-09-30T08:26:24.746Z,99845.41
2022-09-30T08:28:51.447Z,99849.28
2022-09-30T08:31:22.302Z,99846.59
2022-09-30T08:33:49.259Z,99851.34
2022-09-30T08:36:18.473Z,99851.13
2022-09-30T08:38:45.544Z,99845.22
2022-09-30T08:41:22.450Z,99847.47
2022-09-30T08:44:04.381Z,99843.81
2022-09-30T08:46:44.403Z,99849.88
2022-09-30T08:49:43.248Z,99853.44
2022-09-30T08:52:24.645Z,99853.69
2022-09-30T08:55:05.898Z,99860.91
2022-09-30T08:57:47.384Z,99881.22
2022-09-30T09:00:17.240Z,99893.94
2022-09-30T09:02:55.966Z,99904.19
2022-09-30T09:05:50.038Z,99905.13
2022-09-30T09:08:37.794Z,99919.00
2022-09-30T09:11:21.185Z,99928.22
2022-09-30T09:14:14.011Z,99934.19
2022-09-30T09:17:10.635Z,99937.88
2022-09-30T09:19:53.512Z,99940.94
2022-09-30T09:22:24.597Z,99940.66
2022-09-30T09:24:53.593Z,99929.53
2022-09-30T09:27:24.129Z,99927.97
2022-09-30T09:30:01.872Z,99935.31
2022-09-30T09:32:29.878Z,99929.06
2022-09-30T09:35:02.497Z,99919.84
2022-09-30T09:38:03.504Z,99925.41
2022-09-30T09:40:57.299Z,99925.19
2022-09-30T09:43:43.929Z,99919.84
2022-09-30T09:46:25.759Z,99922.34
2022-09-30T09:49:23.638Z,99927.06
2022-09-30T09:51:59.243Z,99930.13
2022-09-30T09:54:31.322Z,99935.84
2022-09-30T09:57:11.786Z,99941.00
2022-09-30T09:59:55.080Z,99953.91
2022-09-30T10:02:24.251Z,99962.09
2022-09-30T10:05:00.201Z,99958.63
2022-09-30T10:07:32.735Z,99974.84
2022-09-30T10:10:08.639Z,99981.38
2022-09-30T10:12:35.662Z,99989.25
2022-09-30T10:15:19.878Z,99993.00
2022-09-30T10:17:55.586Z,99995.47
2022-09-30T10:20:32.045Z,100007.97
2022-09-30T10:23:20.611Z,100016.06
2022-09-30T10:25:59.295Z,100016.94
2022-09-30T10:28:28.907Z,100017.25
2022-09-30T10:31:02.113Z,100023.69
2022-09-30T10:33:33.444Z,100039.31
2022-09-30T10:36:08.631Z,100043.97
2022-09-30T10:38:37.304Z,100044.72
2022-09-30T10:41:05.480Z,100055.25
2022-09-30T10:43:53.330Z,100058.09
2022-09-30T10:46:35.370Z,100064.28
2022-09-30T10:49:10.672Z,100071.72
2022-09-30T10:51:37.799Z,100088.38
2022-09-30T10:54:06.403Z,100087.34
2022-09-30T10:56:45.740Z,100092.75
2022-09-30T10:59:31.627Z,100103.84
2022-09-30T11:02:10.769Z,100101.47
2022-09-30T11:04:43.442Z,100110.00
2022-09-30T11:07:26.797Z,100111.34
2022-09-30T11:10:14.555Z,100111.59
2022-09-30T11:13:02.862Z,100123.50
2022-09-30T11:15:37.420Z,100126.16
2022-09-30T11:18:23.831Z,100118.16
2022-09-30T11:21:05.982Z,100116.81
2022-09-30T11:23:40.933Z,100106.59
2022-09-30T11:26:33.454Z,100110.22
2022-09-30T11:29:26.519Z,100113.34
2022-09-30T11:32:22.574Z,100112.81
2022-09-30T11:35:11.144Z,100119.84
2022-09-30T11:37:55.831Z,100117.78
2022-09-30T11:40:30.832Z,100120.59
2022-09-30T11:43:07.402Z,100132.47
2022-09-30T11:45:44.114Z,100124.78
2022-09-30T11:48:46.436Z,100132.09
2022-09-30T11:51:30.631Z,100136.06
2022-09-30T11:54:11.976Z,100146.50
2022-09-30T11:57:08.028Z,100141.28
2022-09-30T11:59:43.773Z,100145.16
2022-09-30T12:02:39.040Z,100143.28
2022-09-30T12:05:35.933Z,100132.13
2022-09-30T12:08:20.083Z,100122.03
2022-09-30T12:11:13.761Z,100131.72
2022-09-30T12:13:45.534Z,100124.81
2022-09-30T12:16:19.588Z,100120.50
2022-09-30T12:19:20.605Z,100127.97
2022-09-30T12:21:56.222Z,100126.09
2022-09-30T12:24:38.673Z,100136.09
2022-09-30T12:27:15.468Z,100134.94
2022-09-30T12:30:17.957Z,100130.72
2022-09-30T12:33:17.993Z,100131.34
2022-09-30T12:36:07.940Z,100122.50
2022-09-30T12:38:58.538Z,100130.28
2022-09-30T12:41:47.085Z,100121.59
2022-09-30T12:44:56.348Z,100116.66
2022-09-30T12:47:38.890Z,100117.31
2022-09-30T12:50:08.382Z,100116.25
2022-09-30T12:52:36.534Z,100119.56
2022-09-30T12:55:14.120Z,100126.72
2022-09-30T12:57:43.333Z,100121.28
2022-09-30T13:00:17.757Z,100113.25
2022-09-30T13:02:48.727Z,100115.41
2022-09-30T13:05:31.117Z,100110.44
2022-09-30T13:08:04.784Z,100121.56
2022-09-30T13:10:37.633Z,100124.41
2022-09-30T13:13:10.130Z,100123.53
2022-09-30T13:15:39.943Z,100123.53
2022-09-30T13:18:28.085Z,100124.88
2022-09-30T13:21:18.227Z,100124.56
2022-09-30T13:23:56.631Z,100133.81
2022-09-30T13:26:29.524Z,100132.34
2022-09-30T13:28:59.587Z,100137.28
2022-09-30T13:31:27.289Z,100131.50
2022-09-30T13:34:03.001Z,100129.19
2022-09-30T13:36:40.783Z,100144.78
2022-09-30T13:39:30.116Z,100146.91
2022-09-30T13:42:06.787Z,100146.47
2022-09-30T13:44:56.633Z,100146.94
2022-09-30T13:47:39.515Z,100146.06
2022-09-30T13:50:31.679Z,100143.44
2022-09-30T13:53:06.878Z,100132.09
2022-09-30T13:55:41.767Z,100141.56
2022-09-30T13:58:30.862Z,100157.19
2022-09-30T14:01:06.586Z,100159.44
2022-09-30T14:04:04.504Z,100156.75
2022-09-30T14:06:56.733Z,100162.72
2022-09-30T14:09:32.719Z,100163.13
2022-09-30T14:12:06.322Z,100165.16
2022-09-30T14:15:14.302Z,100160.41
2022-09-30T14:18:05.528Z,100170.13
2022-09-30T14:20:54.221Z,100157.13
2022-09-30T14:23:21.771Z,100151.81
2022-09-30T14:26:15.347Z,100147.94
2022-09-30T14:29:03.956Z,100142.06
2022-09-30T14:31:34.004Z,100140.84
2022-09-30T14:34:01.986Z,100146.97
2022-09-30T14:36:28.795Z,100152.00
2022-09-30T14:39:01.256Z,100143.88
2022-09-30T14:41:29.707Z,100153.91
2022-09-30T14:44:05.032Z,100136.56
2022-09-30T14:46:39.173Z,100153.25
2022-09-30T14:49:10.159Z,100162.50
2022-09-30T14:51:47.164Z,100168.81
2022-09-30T14:54:29.658Z,100187.69
2022-09-30T14:56:58.467Z,100188.53
2022-09-30T14:59:28.845Z,100174.50
2022-09-30T15:02:00.683Z,100174.09
2022-09-30T15:04:35.116Z,100169.31
2022-09-30T15:07:04.278Z,100171.34
2022-09-30T15:09:43.560Z,100173.38
2022-09-30T15:12:20.134Z,100177.28
2022-09-30T15:14:55.812Z,100169.25
2022-09-30T15:17:29.376Z,100165.72
2022-09-30T15:19:59.538Z,100164.66
2022-09-30T15:22:29.001Z,100165.03
2022-09-30T15:24:57.948Z,100181.91
2022-09-30T15:27:34.348Z,100169.13
2022-09-30T15:30:05.384Z,100175.13
2022-09-30T15:32:36.637Z,100169.94
2022-09-30T15:35:11.634Z,100173.66
2022-09-30T15:37:38.483Z,100172.56
2022-09-30T15:40:33.154Z,100180.53
2022-09-30T15:43:03.298Z,100190.97
2022-09-30T15:45:39.477Z,100192.84
2022-09-30T15:48:13.451Z,100194.03
2022-09-30T15:50:49.068Z,100195.72
2022-09-30T15:53:24.854Z,100189.50
2022-09-30T15:55:58.542Z,100196.66
2022-09-30T15:58:38.102Z,100204.63
2022-09-30T16:01:21.704Z,100213.47
2022-09-30T16:03:59.725Z,100217.97
2022-09-30T16:06:35.067Z,100218.63
2022-09-30T16:09:08.706Z,100217.78
2022-09-30T16:11:41.872Z,100216.34
2022-09-30T16:14:16.822Z,100215.91
2022-09-30T16:16:50.667Z,100194.44
2022-09-30T16:19:19.572Z,100195.72
2022-09-30T16:21:51.029Z,100185.22
2022-09-30T16:24:21.959Z,100185.00
2022-09-30T16:26:50.236Z,100198.50
2022-09-30T16:29:18.079Z,100202.59
2022-09-30T16:31:46.982Z,100208.50
2022-09-30T16:34:28.563Z,100212.56
2022-09-30T16:37:05.903Z,100225.38
2022-09-30T16:39:32.591Z,100235.25
2022-09-30T16:41:59.269Z,100231.56
2022-09-30T16:44:26.059Z,100233.38
2022-09-30T16:46:52.806Z,100238.09
2022-09-30T16:49:19.899Z,100241.28
2022-09-30T16:51:47.059Z,100247.25
2022-09-30T16:54:13.793Z,100248.28
2022-09-30T16:56:40.468Z,100250.69
2022-09-30T16:59:13.873Z,100238.72
2022-09-30T17:01:41.448Z,100222.50
2022-09-30T17:04:11.037Z,100221.00
2022-09-30T17:06:40.824Z,100226.38
2022-09-30T17:09:07.493Z,100225.97
2022-09-30T17:11:35.922Z,100228.03
2022-09-30T17:14:04.968Z,100241.75
2022-09-30T17:16:32.500Z,100247.16
2022-09-30T17:18:59.606Z,100245.34
2022-09-30T17:21:27.361Z,100246.69
2022-09-30T17:23:55.150Z,100256.66
2022-09-30T17:26:22.399Z,100252.69
2022-09-30T17:28:49.092Z,100254.75
2022-09-30T17:31:15.905Z,100260.47
2022-09-30T17:33:42.936Z,100278.13
2022-09-30T17:36:12.439Z,100306.41
2022-09-30T17:38:39.976Z,100308.91
2022-09-30T17:41:26.319Z,100285.72
2022-09-30T17:43:53.000Z,100309.75
2022-09-30T17:46:23.209Z,100309.00
2022-09-30T17:48:51.374Z,100301.56
2022-09-30T17:51:18.247Z,100311.34
2022-09-30T17:53:45.389Z,100296.13
2022-09-30T17:56:19.592Z,100283.97
2022-09-30T17:58:48.989Z,100289.69
2022-09-30T18:01:18.281Z,100294.75
2022-09-30T18:03:47.893Z,100291.06
2022-09-30T18:06:14.677Z,100299.06
2022-09-30T18:08:41.571Z,100295.69
2022-09-30T18:11:08.638Z,100301.47
2022-09-30T18:13:35.368Z,100308.47
2022-09-30T18:16:06.337Z,100305.81
2022-09-30T18:18:35.160Z,100320.63
2022-09-30T18:21:02.008Z,100324.78
2022-09-30T18:23:28.835Z,100324.41
2022-09-30T18:25:56.328Z,100315.38
2022-09-30T18:28:23.315Z,100310.69
2022-09-30T18:30:50.179Z,100321.66
2022-09-30T18:33:17.505Z,100334.25
2022-09-30T18:35:44.588Z,100348.09
2022-09-30T18:38:12.871Z,100354.34
2022-09-30T18:40:43.367Z,100331.13
2022-09-30T18:43:14.080Z,100320.53
2022-09-30T18:45:43.451Z,100296.22
2022-09-30T18:48:11.134Z,100275.75
2022-09-30T18:50:38.835Z,100282.13
2022-09-30T18:53:09.842Z,100288.41
2022-09-30T18:55:38.302Z,100288.13
2022-09-30T18:58:05.434Z,100300.66
2022-09-30T19:00:32.641Z,100297.59
2022-09-30T19:02:59.552Z,100289.59
2022-09-30T19:05:26.513Z,100291.25
2022-09-30T19:07:53.666Z,100294.13
2022-09-30T19:10:20.566Z,100292.72
2022-09-30T19:12:47.609Z,100286.09
2022-09-30T19:15:16.196Z,100295.41
2022-09-30T19:17:44.019Z,100299.75
2022-09-30T19:20:12.072Z,100298.34
2022-09-30T19:22:38.792Z,100306.19
2022-09-30T19:25:14.116Z,100299.38
2022-09-30T19:27:42.041Z,100301.94
2022-09-30T19:30:11.622Z,100294.53
2022-09-30T19:32:39.106Z,100287.19
2022-09-30T19:35:10.274Z,100278.59
2022-09-30T19:37:38.187Z,100277.31
2022-09-30T19:40:19.897Z,100291.69
2022-09-30T19:42:49.646Z,100292.88
2022-09-30T19:45:16.867Z,100299.81
2022-09-30T19:47:44.273Z,100306.38
2022-09-30T19:50:11.102Z,100306.00
2022-09-30T19:52:47.347Z,100295.50
2022-09-30T19:55:17.984Z,100300.84
2022-09-30T19:57:44.822Z,100302.22
2022-09-30T20:00:13.076Z,100300.28
2022-09-30T20:02:39.926Z,100304.81
2022-09-30T20:05:07.626Z,100302.50
2022-09-30T20:07:35.173Z,100301.03
2022-09-30T20:10:02.341Z,100311.53
2022-09-30T20:12:29.391Z,100321.38
2022-09-30T20:15:14.812Z,100310.03
2022-09-30T20:17:41.619Z,100313.53
2022-09-30T20:20:27.754Z,100315.00
2022-09-30T20:22:54.597Z,100311.53
2022-09-30T20:25:21.537Z,100307.00
2022-09-30T20:27:52.172Z,100313.19
2022-09-30T20:30:20.274Z,100320.34
2022-09-30T20:32:47.269Z,100315.66
2022-09-30T20:35:14.167Z,100316.50
2022-09-30T20:37:42.298Z,100316.50
2022-09-30T20:40:09.819Z,100302.94
2022-09-30T20:42:38.373Z,100288.59
2022-09-30T20:45:10.609Z,100285.91
2022-09-30T20:47:39.081Z,100279.94
2022-09-30T20:50:10.429Z,100286.00
2022-09-30T20:52:37.306Z,100289.88
2022-09-30T20:55:04.575Z,100280.38
2022-09-30T20:57:32.126Z,100259.69
2022-09-30T21:00:00.122Z,100264.34
2022-09-30T21:02:29.234Z,100281.41
2022-09-30T21:04:59.991Z,100283.63
2022-09-30T21:07:30.149Z,100296.50
2022-09-30T21:09:57.780Z,100315.38
2022-09-30T21:12:24.791Z,100301.75
2022-09-30T21:14:51.451Z,100300.72
2022-09-30T21:17:18.182Z,100309.94
2022-09-30T21:19:44.977Z,100304.09
2022-09-30T21:22:11.766Z,100299.16
2022-09-30T21:24:38.410Z,100294.25
2022-09-30T21:27:06.274Z,100299.41
2022-09-30T21:29:33.371Z,100295.47
2022-09-30T21:32:00.936Z,100299.50
2022-09-30T21:34:28.311Z,100304.47
2022-09-30T21:36:55.253Z,100313.97
2022-09-30T21:39:22.314Z,100306.97
2022-09-30T21:41:49.107Z,100295.81
2022-09-30T21:44:16.778Z,100282.13
2022-09-30T21:46:48.146Z,100275.75
2022-09-30T21:49:18.938Z,100281.09
2022-09-30T21:51:46.859Z,100293.44
2022-09-30T21:54:15.045Z,100295.09
2022-09-30T21:56:43.068Z,100300.72
2022-09-30T21:59:13.865Z,100301.56
2022-09-30T22:01:41.083Z,100303.88
2022-09-30T22:04:08.736Z,100307.19
2022-09-30T22:06:36.118Z,100307.03
2022-09-30T22:09:03.214Z,100293.47
2022-09-30T22:11:31.257Z,100296.16
2022-09-30T22:14:00.136Z,100291.25
2022-09-30T22:16:29.958Z,100292.16
2022-09-30T22:19:00.747Z,100296.13
2022-09-30T22:21:33.271Z,100298.25
2022-09-30T22:24:01.666Z,100293.84
2022-09-30T22:26:29.778Z,100294.75
2022-09-30T22:29:06.884Z,100289.59
2022-09-30T22:31:34.388Z,100276.41
2022-09-30T22:34:22.230Z,100314.38
2022-09-30T22:37:07.528Z,100423.44
2022-09-30T22:39:35.043Z,100358.94
2022-09-30T22:42:02.247Z,100345.03
2022-09-30T22:44:32.958Z,100326.06
2022-09-30T22:47:00.315Z,100312.25
2022-09-30T22:49:28.471Z,100318.25
2022-09-30T22:51:56.947Z,100323.78
2022-09-30T22:54:25.808Z,100310.44
2022-09-30T22:56:54.889Z,100304.22
2022-09-30T22:59:23.464Z,100292.63
2022-09-30T23:01:50.476Z,100289.25
2022-09-30T23:04:18.032Z,100286.75
2022-09-30T23:06:48.345Z,100288.59
2022-09-30T23:09:15.591Z,100296.97
2022-09-30T23:11:42.514Z,100296.16
2022-09-30T23:14:09.470Z,100289.63
2022-09-30T23:16:36.555Z,100288.22
2022-09-30T23:19:03.905Z,100281.84
2022-09-30T23:21:31.319Z,100279.66
2022-09-30T23:23:58.409Z,100281.13
2022-09-30T23:26:28.423Z,100282.53
2022-09-30T23:28:59.367Z,100289.88
2022-09-30T23:31:26.803Z,100290.06
2022-09-30T23:33:56.351Z,100287.19
2022-09-30T23:36:32.215Z,100293.38
2022-09-30T23:39:09.238Z,100290.72
2022-09-30T23:41:36.439Z,100295.88
2022-09-30T23:44:04.411Z,100284.34
2022-09-30T23:46:31.690Z,100279.19
2022-09-30T23:48:58.631Z,100282.88
2022-09-30T23:51:25.393Z,100277.72
2022-09-30T23:53:52.276Z,100270.34
2022-09-30T23:56:19.660Z,100266.75
2022-09-30T23:58:47.280Z,100267.59
